Flight Track Log - Related Links

Times and Time Zones

All times are in EDT time to prevent confusion due to time zone crossing. See the DAL488 flight status page for this flight to view local times or setup timezone preferences in your user account.

Time Position Orientation Groundspeed Altitude Reporting Facility
EDT Latitude Longitude Course Direction KTS MPH feet Rate Location/Type
Fri 06:55:00 PM 18.5434 -69.7085 342° North  Level FlightAware Approximate
Fri 06:56:00 PM 18.6570 -69.7481 342° North  Level FlightAware Approximate
Fri 06:57:00 PM 18.7707 -69.7878 342° North  Level FlightAware Approximate
Fri 06:58:00 PM 18.8838 -69.8273 342° North  Level FlightAware Approximate
Fri 06:59:00 PM 18.9968 -69.8669 342° North  Level FlightAware Approximate
Fri 07:00:00 PM 19.1099 -69.9066 342° North  Level FlightAware Approximate
Fri 07:01:00 PM 19.2230 -69.9463 342° North  Level FlightAware Approximate
Fri 07:02:00 PM 19.3360 -69.9860 342° North  Level FlightAware Approximate
Fri 07:03:00 PM 19.4491 -70.0258 342° North  Level FlightAware Approximate
Fri 07:04:00 PM 19.5638 -70.0663 342° North  Level FlightAware Approximate
Fri 07:04:54 PM 18.8992 -69.9475 342° North 466 536 18,800  Level Miami Center
Fri 07:05:00 PM 19.6786 -70.1068 342° North  Level FlightAware Approximate
Fri 07:05:54 PM 19.0150 -69.9769 346° North 440 506 20,600  Level Miami Center
Fri 07:06:00 PM 19.7934 -70.1474 342° North  Level FlightAware Approximate
Fri 07:06:54 PM 19.1331 -70.0128 344° North 435 501 22,200  Level Miami Center
Fri 07:07:00 PM 19.9081 -70.1881 342° North  Level FlightAware Approximate
Fri 07:07:54 PM 19.2508 -70.0444 346° North 435 501 23,900  Level Miami Center
Fri 07:08:00 PM 20.0229 -70.2288 342° North  Level FlightAware Approximate
Fri 07:08:54 PM 19.3769 -70.0733 348° North 445 512 25,200  Level Miami Center
Fri 07:09:00 PM 20.1376 -70.2696 342° North  Level FlightAware Approximate
Fri 07:09:54 PM 19.5017 -70.1158 342° North 460 529 26,400  Level Miami Center
Fri 07:10:00 PM 20.2523 -70.3104 342° North  Level FlightAware Approximate
Fri 07:10:54 PM 19.6300 -70.1492 346° North 466 536 27,500  Level Miami Center
Fri 07:11:54 PM 19.7606 -70.1825 346° North 472 543 29,200 1,550 Climbing Miami Center
Fri 07:12:54 PM 19.8869 -70.2183 345° North 477 549 30,600 1,200 Climbing Miami Center
Fri 07:13:54 PM 20.0133 -70.2519 346° North 477 549 31,600 1,000 Climbing Miami Center
Fri 07:14:54 PM 20.1422 -70.2900 345° North 472 543 32,600 1,150 Climbing Miami Center
Fri 07:15:54 PM 20.2706 -70.3236 346° North 477 549 33,900 700 Climbing Miami Center
Fri 07:16:54 PM 20.4000 -70.3308 357° North 477 549 34,000 50 Climbing Miami Center
Fri 07:17:54 PM 20.5283 -70.3092 North 463 533 34,000  Level Miami Center
Fri 07:18:54 PM 20.6606 -70.2853 10° North 463 533 34,000  Level Miami Center
Fri 07:19:54 PM 20.7886 -70.2592 11° North 468 539 34,000  Level Miami Center
Fri 07:20:54 PM 20.8922 -70.2431 North 468 539 34,000  Level Miami Center
Fri 07:21:54 PM 21.0453 -70.2156 10° North 463 533 34,000  Level Miami Center
Fri 07:22:54 PM 21.1756 -70.1936 North 463 533 34,000  Level Miami Center
Fri 07:23:54 PM 21.3017 -70.1697 10° North 463 533 34,000  Level Miami Center
Fri 07:24:54 PM 21.4281 -70.1478 North 463 533 34,000  Level Miami Center
Fri 07:25:54 PM 21.5561 -70.1236 10° North 463 533 34,000  Level Miami Center
Fri 07:26:54 PM 21.6822 -70.0994 10° North 463 533 34,000 250 Level Miami Center
Fri 07:27:54 PM 21.8083 -70.0772 North 463 533 34,500 800 Climbing Miami Center
Fri 07:28:54 PM 21.9367 -70.0553 North 463 533 35,600 1,000 Climbing Miami Center
Fri 07:29:54 PM 22.0608 -70.0308 10° North 463 533 36,500 950 Climbing Miami Center
Fri 07:30:54 PM 22.1850 -70.0089 North 457 526 37,500 750 Climbing Miami Center
Fri 07:31:54 PM 22.3089 -69.9867 North 452 520 38,000 250 Climbing Miami Center
Fri 07:32:54 PM 22.4331 -69.9622 10° North 452 520 38,000  Level Miami Center
Fri 07:33:54 PM 22.5572 -69.9400 North 452 520 38,000  Level Miami Center
Fri 07:34:54 PM 22.6856 -69.9197 North 446 513 38,000  Level Miami Center
Fri 07:35:54 PM 22.8058 -69.9086 North 446 513 38,000  Level Miami Center
Fri 07:36:54 PM 22.9250 -69.9158 357° North 439 505 38,000  Level Miami Center
Fri 07:37:54 PM 23.0464 -69.9250 356° North 439 505 38,000  Level Miami Center
Fri 07:38:54 PM 23.1747 -69.9428 353° North 449 517 38,000  Level Miami Center
Fri 07:39:54 PM 23.2961 -69.9544 355° North 444 511 38,000  Level Miami Center
Fri 07:40:54 PM 23.4172 -69.9592 358° North 444 511 38,000  Level Miami Center
Fri 07:41:54 PM 23.5411 -69.9750 353° North 444 511 38,000  Level Miami Center
Fri 07:42:54 PM 23.6578 -69.9733 North 444 511 38,000  Level Miami Center
Fri 07:43:54 PM 23.7817 -69.9892 353° North 438 504 38,000  Level Miami Center
Fri 07:44:54 PM 23.9008 -69.9964 357° North 438 504 38,000  Level Miami Center
Fri 07:45:54 PM 24.0200 -70.0011 358° North 438 504 38,000  Level Miami Center
Fri 07:46:54 PM 24.1439 -70.0147 354° North 433 498 38,000  Level Miami Center
Fri 07:47:54 PM 24.2650 -70.0217 357° North 433 498 38,000  Level Miami Center
Fri 07:48:54 PM 24.3844 -70.0289 357° North 428 493 38,000  Level Miami Center
Fri 07:49:54 PM 24.5036 -70.0339 358° North 421 484 38,000  Level Miami Center
Fri 07:50:54 PM 24.6203 -70.0319 North 421 484 38,000  Level Miami Center
Fri 07:51:54 PM 24.7419 -70.0433 355° North 428 493 38,000  Level Miami Center
Fri 07:52:54 PM 24.8658 -70.0639 351° North 428 493 38,000  Level Miami Center
Fri 07:53:54 PM 24.9803 -70.0531 North 423 487 38,000  Level Miami Center
Fri 07:54:54 PM 25.0939 -70.0742 348° North 423 487 38,000  Level Miami Center
Fri 07:55:02 PM 25.0000 -70.0500 348° North 447 514 38,000  Level New York Oceanic (ODAPS)
Fri 07:57:00 PM 25.3378 -70.1237 348° North  Level FlightAware Approximate
Fri 08:04:00 PM 26.1473 -70.3086 348° North  Level FlightAware Approximate
Fri 08:05:00 PM 26.2629 -70.3352 348° North  Level FlightAware Approximate
Fri 08:06:00 PM 26.3785 -70.3619 348° North  Level FlightAware Approximate
Fri 08:07:00 PM 26.4941 -70.3886 348° North  Level FlightAware Approximate
Fri 08:08:00 PM 26.6097 -70.4154 348° North  Level FlightAware Approximate
Fri 08:09:00 PM 26.7253 -70.4422 348° North  Level FlightAware Approximate
Fri 08:10:00 PM 26.8409 -70.4691 348° North  Level FlightAware Approximate
Fri 08:11:00 PM 26.9565 -70.4961 348° North  Level FlightAware Approximate
Fri 08:12:00 PM 27.0721 -70.5231 348° North  Level FlightAware Approximate
Fri 08:13:00 PM 27.1877 -70.5501 348° North  Level FlightAware Approximate
Fri 08:14:00 PM 27.3033 -70.5773 348° North  Level FlightAware Approximate
Fri 08:15:00 PM 27.4188 -70.6045 348° North  Level FlightAware Approximate
Fri 08:16:00 PM 27.5343 -70.6323 348° North  Level FlightAware Approximate
Fri 08:17:00 PM 27.6497 -70.6601 348° North  Level FlightAware Approximate
Fri 08:18:00 PM 27.7652 -70.6880 348° North  Level FlightAware Approximate
Fri 08:19:00 PM 27.8806 -70.7160 348° North  Level FlightAware Approximate
Fri 08:20:00 PM 27.9958 -70.7455 347° North  Level FlightAware Approximate
Fri 08:21:00 PM 28.1109 -70.7751 347° North  Level FlightAware Approximate
Fri 08:22:00 PM 28.2261 -70.8048 347° North  Level FlightAware Approximate
Fri 08:23:00 PM 28.3412 -70.8345 347° North  Level FlightAware Approximate
Fri 08:24:00 PM 28.4563 -70.8643 347° North  Level FlightAware Approximate
Fri 08:25:00 PM 28.5714 -70.8941 347° North  Level FlightAware Approximate
Fri 08:26:00 PM 28.6865 -70.9241 347° North  Level FlightAware Approximate
Fri 08:27:00 PM 28.8016 -70.9540 347° North  Level FlightAware Approximate
Fri 08:28:00 PM 28.9170 -70.9830 348° North  Level FlightAware Approximate
Fri 08:29:00 PM 29.0324 -71.0112 348° North  Level FlightAware Approximate
Fri 08:29:42 PM 28.9000 -70.9833 348° North 434 499 38,000  Level New York Oceanic (ODAPS)
Fri 08:30:00 PM 29.1479 -71.0394 348° North  Level FlightAware Approximate
Fri 08:31:00 PM 29.2644 -71.0680 348° North  Level FlightAware Approximate
Fri 08:32:00 PM 29.3810 -71.0966 348° North  Level FlightAware Approximate
Fri 08:33:00 PM 29.4975 -71.1253 348° North  Level FlightAware Approximate
Fri 08:34:00 PM 29.6140 -71.1541 348° North  Level FlightAware Approximate
Fri 08:35:00 PM 29.7305 -71.1830 348° North  Level FlightAware Approximate
Fri 08:36:00 PM 29.9505 -71.2443 348° North 434 499 38,000  Level FlightAware Transoceanic
Fri 08:37:00 PM 30.0672 -71.2736 348° North 434 499 38,000  Level FlightAware Transoceanic
Fri 08:38:00 PM 30.1839 -71.3030 348° North 434 499 38,000  Level FlightAware Transoceanic
Fri 08:39:00 PM 30.3006 -71.3325 348° North 434 499 38,000  Level FlightAware Transoceanic
Fri 08:40:00 PM 30.4173 -71.3621 348° North 434 499 38,000  Level FlightAware Transoceanic
Fri 08:41:00 PM 30.5339 -71.3917 348° North 434 499 38,000  Level FlightAware Transoceanic
Fri 08:42:00 PM 30.6506 -71.4214 348° North 434 499 38,000  Level FlightAware Transoceanic
Fri 08:43:00 PM 30.7673 -71.4511 348° North 434 499 38,000  Level FlightAware Transoceanic
Fri 08:44:00 PM 30.8839 -71.4809 348° North 434 499 38,000  Level FlightAware Transoceanic
Fri 08:45:00 PM 31.0005 -71.5108 348° North 434 499 38,000  Level FlightAware Transoceanic
Fri 08:46:00 PM 31.1172 -71.5408 348° North 434 499 38,000  Level FlightAware Transoceanic
Fri 08:47:00 PM 31.2338 -71.5709 348° North 434 499 38,000  Level FlightAware Transoceanic
Fri 08:48:00 PM 31.3504 -71.6010 348° North 434 499 38,000  Level FlightAware Transoceanic
Fri 08:49:00 PM 31.4670 -71.6312 348° North 434 499 38,000  Level FlightAware Transoceanic
Fri 08:50:00 PM 31.5837 -71.6615 348° North 434 499 38,000  Level FlightAware Transoceanic
Fri 08:51:00 PM 31.7003 -71.6918 347° North 434 499 38,000  Level FlightAware Transoceanic
Fri 08:52:00 PM 31.8168 -71.7223 347° North 434 499 38,000  Level FlightAware Transoceanic
Fri 08:53:00 PM 31.9334 -71.7527 347° North 434 499 38,000  Level FlightAware Transoceanic
Fri 08:54:00 PM 32.0500 -71.7833 347° North 434 499 38,000  Level FlightAware Transoceanic
Fri 08:55:00 PM 32.1730 -71.8164 347° North 434 499 38,000  Level FlightAware Transoceanic
Fri 08:56:00 PM 32.2959 -71.8495 347° North 434 499 38,000  Level FlightAware Transoceanic
Fri 08:57:00 PM 32.4188 -71.8827 347° North 434 499 38,000  Level FlightAware Transoceanic
Fri 08:58:00 PM 32.5417 -71.9159 347° North 434 499 38,000  Level FlightAware Transoceanic
Fri 08:59:00 PM 32.6646 -71.9493 347° North 434 499 38,000  Level FlightAware Transoceanic
Fri 09:00:00 PM 32.7876 -71.9828 347° North 434 499 38,000  Level FlightAware Transoceanic
Fri 09:01:00 PM 32.9104 -72.0163 347° North 434 499 38,000  Level FlightAware Transoceanic
Fri 09:02:00 PM 33.0251 -72.0357 352° North  Level FlightAware Approximate
Fri 09:03:00 PM 33.1397 -72.0551 352° North  Level FlightAware Approximate
Fri 09:04:00 PM 33.2543 -72.0745 352° North  Level FlightAware Approximate
Fri 09:05:00 PM 33.3689 -72.0940 352° North  Level FlightAware Approximate
Fri 09:06:00 PM 33.4835 -72.1136 352° North  Level FlightAware Approximate
Fri 09:07:00 PM 33.5980 -72.1332 352° North  Level FlightAware Approximate
Fri 09:08:00 PM 33.7126 -72.1529 352° North  Level FlightAware Approximate
Fri 09:09:00 PM 33.8272 -72.1726 352° North  Level FlightAware Approximate
Fri 09:10:00 PM 33.9418 -72.1924 352° North  Level FlightAware Approximate
Fri 09:11:00 PM 34.0564 -72.2122 352° North  Level FlightAware Approximate
Fri 09:12:00 PM 34.1710 -72.2320 352° North  Level FlightAware Approximate
Fri 09:13:00 PM 34.2855 -72.2520 352° North  Level FlightAware Approximate
Fri 09:13:28 PM 34.4097 -72.3250 352° North 454 522 38,000  Level New York Center
Fri 09:14:00 PM 34.4001 -72.2720 352° North  Level FlightAware Approximate
Fri 09:14:29 PM 34.5261 -72.3525 349° North 448 516 38,000  Level New York Center
Fri 09:15:00 PM 34.5147 -72.2920 352° North  Level FlightAware Approximate
Fri 09:15:27 PM 34.6533 -72.3678 354° North 454 522 38,000  Level New York Center
Fri 09:16:00 PM 34.6292 -72.3121 352° North  Level FlightAware Approximate
Fri 09:16:28 PM 34.7844 -72.3806 355° North 454 522 38,000  Level New York Center
Fri 09:17:00 PM 34.7438 -72.3322 352° North  Level FlightAware Approximate
Fri 09:17:29 PM 34.9136 -72.3933 355° North 460 529 38,000  Level New York Center
Fri 09:18:00 PM 34.8583 -72.3525 352° North  Level FlightAware Approximate
Fri 09:18:29 PM 35.0428 -72.4089 354° North 460 529 38,000  Level New York Center
Fri 09:19:26 PM 35.1764 -72.4064 North 465 535 38,000  Level New York Center
Fri 09:20:27 PM 35.2994 -72.4092 359° North 458 527 38,000  Level New York Center
Fri 09:21:29 PM 35.4267 -72.4092 360° North 458 527 38,000  Level New York Center
Fri 09:22:27 PM 35.5519 -72.4069 North 453 521 38,000  Level New York Center
Fri 09:23:28 PM 35.6792 -72.4069 360° North 453 521 38,000  Level New York Center
Fri 09:24:27 PM 35.8064 -72.4022 North 453 521 38,000  Level New York Center
Fri 09:25:27 PM 35.9358 -72.3997 North 445 512 38,000  Level New York Center
Fri 09:26:26 PM 36.0567 -72.4022 359° North 440 506 38,000  Level New York Center
Fri 09:27:27 PM 36.1819 -72.4000 North 440 506 38,000  Level New York Center
Fri 09:28:29 PM 36.3031 -72.4000 360° North 440 506 38,000  Level New York Center
Fri 09:29:27 PM 36.4344 -72.3950 North 447 514 38,000  Level New York Center
Fri 09:30:28 PM 36.5617 -72.3978 359° North 445 512 38,000  Level New York Center
Fri 09:31:28 PM 36.6847 -72.3956 North 451 519 38,000  Level New York Center
Fri 09:32:29 PM 36.8081 -72.3928 North 446 513 38,000  Level New York Center
Fri 09:33:27 PM 36.9333 -72.3750 North 446 513 38,000  Level New York Center
Fri 09:34:28 PM 37.0608 -72.3569 North 446 513 38,000  Level New York Center
Fri 09:35:28 PM 37.1822 -72.3386 North 446 513 38,000  Level New York Center
Fri 09:36:29 PM 37.3181 -72.3233 North 451 519 38,000  Level New York Center
Fri 09:37:29 PM 37.4372 -72.3047 North 445 512 38,000  Level New York Center
Fri 09:38:27 PM 37.5644 -72.2867 North 445 512 38,000  Level New York Center
Fri 09:39:27 PM 37.6669 -72.2756 North 435 501 38,000  Level New York Center
Fri 09:40:27 PM 37.7850 -72.3358 338° Northwest 428 493 38,000  Level New York Center
Fri 09:41:28 PM 37.8967 -72.4067 333° Northwest 435 501 38,000  Level New York Center
Fri 09:42:29 PM 38.0103 -72.4858 331° Northwest 440 506 38,000  Level New York Center
Fri 09:43:26 PM 38.1239 -72.5569 334° Northwest 450 518 38,000 -101 Level New York Center
Fri 09:44:28 PM 38.2353 -72.6314 332° Northwest 455 524 37,800 -634 Descending New York Center
Fri 09:45:29 PM 38.3569 -72.7217 330° Northwest 455 524 36,700 -992 Descending New York Center
Fri 09:46:29 PM 38.4767 -72.7967 334° Northwest 455 524 35,800 -966 Descending New York Center
Fri 09:47:27 PM 38.5939 -72.8769 332° Northwest 465 535 34,800 -1,866 Descending New York Center
Fri 09:48:28 PM 38.7031 -72.9522 332° Northwest 471 542 32,100 -3,049 Descending New York Center
Fri 09:49:29 PM 38.8225 -73.0303 333° Northwest 477 549 28,600 -3,322 Descending New York Center
Fri 09:50:29 PM 38.9522 -73.1200 332° Northwest 477 549 25,400 -3,000 Descending New York Center
Fri 09:51:27 PM 39.0631 -73.1986 331° Northwest 466 536 22,700 -2,644 Descending New York Center
Fri 09:52:27 PM 39.1722 -73.2719 332° Northwest 454 522 20,200 -2,430 Descending New York Center
Fri 09:53:28 PM 39.2789 -73.3456 332° Northwest 443 510 17,800 -2,557 Descending New York Center
Fri 09:54:29 PM 39.3775 -73.4161 331° Northwest 423 487 15,000 -2,571 Descending New York Center
Fri 09:55:27 PM 39.4781 -73.4847 332° Northwest 411 473 12,700 -2,237 Descending New York Center
Fri 09:56:27 PM 39.5764 -73.5531 332° Northwest 404 465 10,600 -1,400 Descending New York Center
Fri 09:57:27 PM 39.6667 -73.6158 332° Northwest 387 445 9,900 -347 Descending New York Center
Fri 09:58:28 PM 39.7589 -73.6819 331° Northwest 376 433 9,900  Level New York Center
Fri 09:59:29 PM 39.8489 -73.7450 332° Northwest 376 433 9,900 -101 Level New York Center
Fri 10:00:27 PM 39.9289 -73.8000 332° Northwest 364 419 9,700 -450 Descending New York Center
Fri 10:01:29 PM 40.0044 -73.8547 331° Northwest 332 382 9,000 -836 Descending New York Center
Fri 10:02:29 PM 40.0706 -73.8033 31° Northeast 250 288 8,000 -1,271 Descending New York Center
Fri 10:03:27 PM 40.1253 -73.7028 55° Northeast 275 316 6,500 -1,424 Descending New York Center
Fri 10:04:27 PM 40.1897 -73.7028 360° North 240 276 5,200 -1,240 Descending New York Center
Fri 10:05:28 PM 40.2547 -73.7761 319° Northwest 262 302 4,000 -541 Descending New York Center
Fri 10:06:29 PM 40.3053 -73.8328 319° Northwest 271 312 4,100  Climbing New York Center
Fri 10:07:27 PM 40.3181 -73.9042 283° West 189 217 4,000 -504 Descending New York Center
Fri 10:08:28 PM 40.3436 -73.9597 301° West 189 217 3,100 -942 Descending New York Center
Fri 10:09:28 PM 40.4003 -73.9461 10° North 141 162 2,100 -545 Descending New York Center
Fri 10:10:29 PM 40.4383 -73.9178 30° Northeast 146 168 2,000 -50 Descending New York Center
Fri 10:11:27 PM 40.4831 -73.8817 32° Northeast 163 188 2,000  Level New York Center
Fri 10:12:27 PM 40.5172 -73.8586 27° Northeast 163 188 2,000  Level New York Center

Login

Don't have an account? Register now (free) for customized features, flight alerts, and more!